sensor_id;sensor_type;location;lat;lon;timestamp;P1;durP1;ratioP1;P2;durP2;ratioP2
27265;SDS011;14766;51.380;13.762;2023-04-15T00:01:52;1.67;;;1.58;;
27265;SDS011;14766;51.380;13.762;2023-04-15T00:04:19;2.45;;;1.40;;
27265;SDS011;14766;51.380;13.762;2023-04-15T00:06:50;2.85;;;1.70;;
27265;SDS011;14766;51.380;13.762;2023-04-15T00:09:18;2.40;;;1.83;;
27265;SDS011;14766;51.380;13.762;2023-04-15T00:11:46;1.73;;;1.60;;
27265;SDS011;14766;51.380;13.762;2023-04-15T00:14:13;1.90;;;1.70;;
27265;SDS011;14766;51.380;13.762;2023-04-15T00:16:41;1.85;;;1.40;;
27265;SDS011;14766;51.380;13.762;2023-04-15T00:19:09;1.60;;;1.50;;
27265;SDS011;14766;51.380;13.762;2023-04-15T00:21:38;1.45;;;1.35;;
27265;SDS011;14766;51.380;13.762;2023-04-15T00:24:06;1.42;;;1.33;;
27265;SDS011;14766;51.380;13.762;2023-04-15T00:26:34;1.52;;;1.27;;
27265;SDS011;14766;51.380;13.762;2023-04-15T00:29:03;1.80;;;1.70;;
27265;SDS011;14766;51.380;13.762;2023-04-15T00:31:30;1.35;;;1.25;;
27265;SDS011;14766;51.380;13.762;2023-04-15T00:33:57;1.48;;;1.38;;
27265;SDS011;14766;51.380;13.762;2023-04-15T00:36:25;1.50;;;1.40;;
27265;SDS011;14766;51.380;13.762;2023-04-15T00:38:52;1.75;;;1.48;;
27265;SDS011;14766;51.380;13.762;2023-04-15T00:41:21;2.05;;;1.70;;
27265;SDS011;14766;51.380;13.762;2023-04-15T00:43:50;1.52;;;1.38;;
27265;SDS011;14766;51.380;13.762;2023-04-15T00:46:17;1.95;;;1.55;;
27265;SDS011;14766;51.380;13.762;2023-04-15T00:48:47;1.40;;;1.30;;
27265;SDS011;14766;51.380;13.762;2023-04-15T00:51:15;1.75;;;1.45;;
27265;SDS011;14766;51.380;13.762;2023-04-15T00:53:42;1.50;;;1.30;;
27265;SDS011;14766;51.380;13.762;2023-04-15T00:56:09;1.48;;;1.38;;
27265;SDS011;14766;51.380;13.762;2023-04-15T00:58:36;1.40;;;1.27;;
27265;SDS011;14766;51.380;13.762;2023-04-15T01:01:04;1.25;;;1.08;;
27265;SDS011;14766;51.380;13.762;2023-04-15T01:03:31;1.40;;;1.27;;
27265;SDS011;14766;51.380;13.762;2023-04-15T01:05:59;1.75;;;1.58;;
27265;SDS011;14766;51.380;13.762;2023-04-15T01:08:30;1.58;;;1.35;;
27265;SDS011;14766;51.380;13.762;2023-04-15T01:11:00;1.73;;;1.40;;
27265;SDS011;14766;51.380;13.762;2023-04-15T01:13:29;1.40;;;1.20;;
27265;SDS011;14766;51.380;13.762;2023-04-15T01:15:56;1.70;;;1.60;;
27265;SDS011;14766;51.380;13.762;2023-04-15T01:18:23;1.40;;;1.30;;
27265;SDS011;14766;51.380;13.762;2023-04-15T01:20:51;1.65;;;1.50;;
27265;SDS011;14766;51.380;13.762;2023-04-15T01:23:22;1.92;;;1.50;;
27265;SDS011;14766;51.380;13.762;2023-04-15T01:25:49;1.58;;;1.48;;
27265;SDS011;14766;51.380;13.762;2023-04-15T01:28:18;1.40;;;1.30;;
27265;SDS011;14766;51.380;13.762;2023-04-15T01:30:46;1.80;;;1.60;;
27265;SDS011;14766;51.380;13.762;2023-04-15T01:33:14;1.73;;;1.40;;
27265;SDS011;14766;51.380;13.762;2023-04-15T01:35:41;1.75;;;1.38;;
27265;SDS011;14766;51.380;13.762;2023-04-15T01:38:10;1.75;;;1.65;;
27265;SDS011;14766;51.380;13.762;2023-04-15T01:40:37;1.92;;;1.60;;
27265;SDS011;14766;51.380;13.762;2023-04-15T01:43:06;2.08;;;1.63;;
27265;SDS011;14766;51.380;13.762;2023-04-15T01:45:33;1.85;;;1.70;;
27265;SDS011;14766;51.380;13.762;2023-04-15T01:48:02;1.80;;;1.70;;
27265;SDS011;14766;51.380;13.762;2023-04-15T01:50:29;1.85;;;1.65;;
27265;SDS011;14766;51.380;13.762;2023-04-15T01:52:56;2.28;;;1.80;;
27265;SDS011;14766;51.380;13.762;2023-04-15T01:55:24;1.80;;;1.60;;
27265;SDS011;14766;51.380;13.762;2023-04-15T01:57:52;2.40;;;1.90;;
27265;SDS011;14766;51.380;13.762;2023-04-15T02:00:19;2.08;;;1.83;;
27265;SDS011;14766;51.380;13.762;2023-04-15T02:02:47;4.03;;;1.83;;
27265;SDS011;14766;51.380;13.762;2023-04-15T02:05:17;2.88;;;1.88;;
27265;SDS011;14766;51.380;13.762;2023-04-15T02:07:46;2.00;;;1.70;;
27265;SDS011;14766;51.380;13.762;2023-04-15T02:10:13;2.08;;;1.88;;
27265;SDS011;14766;51.380;13.762;2023-04-15T02:12:42;2.35;;;1.92;;
27265;SDS011;14766;51.380;13.762;2023-04-15T02:15:10;2.40;;;2.17;;
27265;SDS011;14766;51.380;13.762;2023-04-15T02:17:37;3.95;;;2.00;;
27265;SDS011;14766;51.380;13.762;2023-04-15T02:20:04;2.10;;;1.80;;
27265;SDS011;14766;51.380;13.762;2023-04-15T02:22:31;2.65;;;2.17;;
27265;SDS011;14766;51.380;13.762;2023-04-15T02:24:58;2.58;;;2.08;;
27265;SDS011;14766;51.380;13.762;2023-04-15T02:27:25;2.80;;;2.00;;
27265;SDS011;14766;51.380;13.762;2023-04-15T02:29:54;2.28;;;2.08;;
27265;SDS011;14766;51.380;13.762;2023-04-15T02:32:21;2.30;;;2.10;;
27265;SDS011;14766;51.380;13.762;2023-04-15T02:34:49;2.28;;;1.90;;
27265;SDS011;14766;51.380;13.762;2023-04-15T02:37:17;2.30;;;2.03;;
27265;SDS011;14766;51.380;13.762;2023-04-15T02:39:46;2.10;;;1.90;;
27265;SDS011;14766;51.380;13.762;2023-04-15T02:42:14;2.65;;;2.30;;
27265;SDS011;14766;51.380;13.762;2023-04-15T02:44:41;2.30;;;2.10;;
27265;SDS011;14766;51.380;13.762;2023-04-15T02:47:09;2.30;;;2.00;;
27265;SDS011;14766;51.380;13.762;2023-04-15T02:49:37;2.30;;;2.10;;
27265;SDS011;14766;51.380;13.762;2023-04-15T02:52:04;2.40;;;2.08;;
27265;SDS011;14766;51.380;13.762;2023-04-15T02:54:32;2.63;;;2.20;;
27265;SDS011;14766;51.380;13.762;2023-04-15T02:57:00;3.08;;;2.50;;
27265;SDS011;14766;51.380;13.762;2023-04-15T02:59:28;2.30;;;2.10;;
27265;SDS011;14766;51.380;13.762;2023-04-15T03:01:55;3.25;;;2.67;;
27265;SDS011;14766;51.380;13.762;2023-04-15T03:04:26;2.72;;;2.30;;
27265;SDS011;14766;51.380;13.762;2023-04-15T03:06:55;2.65;;;2.30;;
27265;SDS011;14766;51.380;13.762;2023-04-15T03:09:23;3.13;;;2.60;;
27265;SDS011;14766;51.380;13.762;2023-04-15T03:11:51;2.70;;;2.15;;
27265;SDS011;14766;51.380;13.762;2023-04-15T03:14:21;2.95;;;2.65;;
27265;SDS011;14766;51.380;13.762;2023-04-15T03:16:50;2.55;;;2.20;;
27265;SDS011;14766;51.380;13.762;2023-04-15T03:19:17;2.97;;;2.42;;
27265;SDS011;14766;51.380;13.762;2023-04-15T03:21:44;2.83;;;2.40;;
27265;SDS011;14766;51.380;13.762;2023-04-15T03:24:12;3.83;;;2.40;;
27265;SDS011;14766;51.380;13.762;2023-04-15T03:26:43;2.75;;;2.53;;
27265;SDS011;14766;51.380;13.762;2023-04-15T03:29:14;3.17;;;2.80;;
27265;SDS011;14766;51.380;13.762;2023-04-15T03:31:41;3.33;;;3.00;;
27265;SDS011;14766;51.380;13.762;2023-04-15T03:34:10;3.65;;;2.90;;
27265;SDS011;14766;51.380;13.762;2023-04-15T03:36:37;3.28;;;2.95;;
27265;SDS011;14766;51.380;13.762;2023-04-15T03:39:04;3.13;;;2.83;;
27265;SDS011;14766;51.380;13.762;2023-04-15T03:41:31;4.50;;;3.88;;
27265;SDS011;14766;51.380;13.762;2023-04-15T03:43:58;3.50;;;3.20;;
27265;SDS011;14766;51.380;13.762;2023-04-15T03:46:26;3.70;;;2.95;;
27265;SDS011;14766;51.380;13.762;2023-04-15T03:48:53;4.35;;;3.30;;
27265;SDS011;14766;51.380;13.762;2023-04-15T03:51:20;4.28;;;3.28;;
27265;SDS011;14766;51.380;13.762;2023-04-15T03:53:47;4.40;;;3.55;;
27265;SDS011;14766;51.380;13.762;2023-04-15T03:56:15;4.75;;;3.80;;
27265;SDS011;14766;51.380;13.762;2023-04-15T03:58:42;4.32;;;3.90;;
27265;SDS011;14766;51.380;13.762;2023-04-15T04:01:10;4.32;;;3.50;;
27265;SDS011;14766;51.380;13.762;2023-04-15T04:03:37;4.25;;;3.78;;
27265;SDS011;14766;51.380;13.762;2023-04-15T04:06:05;5.22;;;3.60;;
27265;SDS011;14766;51.380;13.762;2023-04-15T04:08:33;4.45;;;3.47;;
27265;SDS011;14766;51.380;13.762;2023-04-15T04:11:01;3.58;;;3.22;;
27265;SDS011;14766;51.380;13.762;2023-04-15T04:13:28;3.95;;;3.30;;
27265;SDS011;14766;51.380;13.762;2023-04-15T04:15:54;5.32;;;4.20;;
27265;SDS011;14766;51.380;13.762;2023-04-15T04:18:25;4.80;;;4.10;;
27265;SDS011;14766;51.380;13.762;2023-04-15T04:20:52;5.35;;;4.38;;
27265;SDS011;14766;51.380;13.762;2023-04-15T04:23:21;5.82;;;4.45;;
27265;SDS011;14766;51.380;13.762;2023-04-15T04:25:48;5.03;;;4.20;;
27265;SDS011;14766;51.380;13.762;2023-04-15T04:28:15;5.15;;;4.43;;
27265;SDS011;14766;51.380;13.762;2023-04-15T04:30:42;5.97;;;5.00;;
27265;SDS011;14766;51.380;13.762;2023-04-15T04:33:09;6.10;;;4.78;;
27265;SDS011;14766;51.380;13.762;2023-04-15T04:35:36;6.15;;;5.10;;
27265;SDS011;14766;51.380;13.762;2023-04-15T04:38:04;6.20;;;5.20;;
27265;SDS011;14766;51.380;13.762;2023-04-15T04:40:31;7.38;;;5.57;;
27265;SDS011;14766;51.380;13.762;2023-04-15T04:42:58;7.13;;;5.95;;
27265;SDS011;14766;51.380;13.762;2023-04-15T04:45:25;8.38;;;5.78;;
27265;SDS011;14766;51.380;13.762;2023-04-15T04:47:53;8.48;;;6.68;;
27265;SDS011;14766;51.380;13.762;2023-04-15T04:50:21;9.68;;;7.20;;
27265;SDS011;14766;51.380;13.762;2023-04-15T04:52:49;9.15;;;7.63;;
27265;SDS011;14766;51.380;13.762;2023-04-15T04:55:17;8.65;;;7.28;;
27265;SDS011;14766;51.380;13.762;2023-04-15T04:57:44;9.57;;;8.10;;
27265;SDS011;14766;51.380;13.762;2023-04-15T05:00:12;10.50;;;8.48;;
27265;SDS011;14766;51.380;13.762;2023-04-15T05:02:40;10.73;;;8.20;;
27265;SDS011;14766;51.380;13.762;2023-04-15T05:05:09;10.40;;;8.18;;
27265;SDS011;14766;51.380;13.762;2023-04-15T05:07:37;10.02;;;7.80;;
27265;SDS011;14766;51.380;13.762;2023-04-15T05:10:05;10.25;;;8.02;;
27265;SDS011;14766;51.380;13.762;2023-04-15T05:12:32;12.82;;;9.48;;
27265;SDS011;14766;51.380;13.762;2023-04-15T05:14:59;11.27;;;8.85;;
27265;SDS011;14766;51.380;13.762;2023-04-15T05:17:26;11.30;;;9.13;;
27265;SDS011;14766;51.380;13.762;2023-04-15T05:19:54;11.95;;;9.57;;
27265;SDS011;14766;51.380;13.762;2023-04-15T05:22:21;12.52;;;10.48;;
27265;SDS011;14766;51.380;13.762;2023-04-15T05:24:48;13.75;;;10.15;;
27265;SDS011;14766;51.380;13.762;2023-04-15T05:27:15;12.02;;;9.65;;
27265;SDS011;14766;51.380;13.762;2023-04-15T05:29:45;13.32;;;10.43;;
27265;SDS011;14766;51.380;13.762;2023-04-15T05:32:14;12.40;;;9.52;;
27265;SDS011;14766;51.380;13.762;2023-04-15T05:34:42;14.38;;;10.55;;
27265;SDS011;14766;51.380;13.762;2023-04-15T05:37:10;13.85;;;10.75;;
27265;SDS011;14766;51.380;13.762;2023-04-15T05:39:37;13.02;;;10.27;;
27265;SDS011;14766;51.380;13.762;2023-04-15T05:42:04;15.30;;;10.98;;
27265;SDS011;14766;51.380;13.762;2023-04-15T05:44:32;13.63;;;10.75;;
27265;SDS011;14766;51.380;13.762;2023-04-15T05:46:59;14.50;;;11.50;;
27265;SDS011;14766;51.380;13.762;2023-04-15T05:49:26;15.88;;;11.85;;
27265;SDS011;14766;51.380;13.762;2023-04-15T05:51:53;15.32;;;11.82;;
27265;SDS011;14766;51.380;13.762;2023-04-15T05:54:20;16.08;;;11.52;;
27265;SDS011;14766;51.380;13.762;2023-04-15T05:56:51;18.00;;;12.60;;
27265;SDS011;14766;51.380;13.762;2023-04-15T05:59:18;16.30;;;12.02;;
27265;SDS011;14766;51.380;13.762;2023-04-15T06:01:45;17.58;;;12.52;;
27265;SDS011;14766;51.380;13.762;2023-04-15T06:04:12;18.55;;;13.55;;
27265;SDS011;14766;51.380;13.762;2023-04-15T06:06:39;16.23;;;12.98;;
27265;SDS011;14766;51.380;13.762;2023-04-15T06:09:09;18.08;;;13.43;;
27265;SDS011;14766;51.380;13.762;2023-04-15T06:11:36;17.60;;;13.02;;
27265;SDS011;14766;51.380;13.762;2023-04-15T06:14:03;19.60;;;13.65;;
27265;SDS011;14766;51.380;13.762;2023-04-15T06:16:31;17.85;;;14.00;;
27265;SDS011;14766;51.380;13.762;2023-04-15T06:18:58;17.90;;;13.82;;
27265;SDS011;14766;51.380;13.762;2023-04-15T06:21:25;18.85;;;13.60;;
27265;SDS011;14766;51.380;13.762;2023-04-15T06:23:53;18.90;;;14.23;;
27265;SDS011;14766;51.380;13.762;2023-04-15T06:26:20;17.65;;;12.93;;
27265;SDS011;14766;51.380;13.762;2023-04-15T06:28:48;16.45;;;12.77;;
27265;SDS011;14766;51.380;13.762;2023-04-15T06:31:16;17.73;;;13.15;;
27265;SDS011;14766;51.380;13.762;2023-04-15T06:33:44;17.80;;;13.23;;
27265;SDS011;14766;51.380;13.762;2023-04-15T06:36:12;20.08;;;14.18;;
27265;SDS011;14766;51.380;13.762;2023-04-15T06:38:41;18.20;;;13.95;;
27265;SDS011;14766;51.380;13.762;2023-04-15T06:41:07;16.42;;;13.35;;
27265;SDS011;14766;51.380;13.762;2023-04-15T06:43:37;19.55;;;14.18;;
27265;SDS011;14766;51.380;13.762;2023-04-15T06:46:04;16.77;;;12.88;;
27265;SDS011;14766;51.380;13.762;2023-04-15T06:48:32;23.60;;;16.27;;
27265;SDS011;14766;51.380;13.762;2023-04-15T06:50:59;60.67;;;40.90;;
27265;SDS011;14766;51.380;13.762;2023-04-15T06:53:27;54.97;;;39.35;;
27265;SDS011;14766;51.380;13.762;2023-04-15T06:55:54;44.55;;;31.10;;
27265;SDS011;14766;51.380;13.762;2023-04-15T06:58:21;23.83;;;16.65;;
27265;SDS011;14766;51.380;13.762;2023-04-15T07:00:48;18.30;;;13.13;;
27265;SDS011;14766;51.380;13.762;2023-04-15T07:03:18;15.30;;;11.85;;
27265;SDS011;14766;51.380;13.762;2023-04-15T07:05:47;15.25;;;11.30;;
27265;SDS011;14766;51.380;13.762;2023-04-15T07:08:15;14.60;;;11.20;;
27265;SDS011;14766;51.380;13.762;2023-04-15T07:10:42;14.38;;;10.70;;
27265;SDS011;14766;51.380;13.762;2023-04-15T07:13:10;14.13;;;9.95;;
27265;SDS011;14766;51.380;13.762;2023-04-15T07:15:38;12.98;;;10.43;;
27265;SDS011;14766;51.380;13.762;2023-04-15T07:18:05;15.90;;;11.07;;
27265;SDS011;14766;51.380;13.762;2023-04-15T07:20:32;14.45;;;10.57;;
27265;SDS011;14766;51.380;13.762;2023-04-15T07:22:59;14.57;;;11.25;;
27265;SDS011;14766;51.380;13.762;2023-04-15T07:25:27;11.80;;;9.50;;
27265;SDS011;14766;51.380;13.762;2023-04-15T07:27:54;12.18;;;9.88;;
27265;SDS011;14766;51.380;13.762;2023-04-15T07:30:21;13.30;;;10.70;;
27265;SDS011;14766;51.380;13.762;2023-04-15T07:32:49;10.82;;;9.00;;
27265;SDS011;14766;51.380;13.762;2023-04-15T07:35:16;7.07;;;6.00;;
27265;SDS011;14766;51.380;13.762;2023-04-15T07:37:46;6.18;;;5.05;;
27265;SDS011;14766;51.380;13.762;2023-04-15T07:40:16;5.95;;;4.47;;
27265;SDS011;14766;51.380;13.762;2023-04-15T07:42:43;5.10;;;4.15;;
27265;SDS011;14766;51.380;13.762;2023-04-15T07:45:14;4.32;;;3.60;;
27265;SDS011;14766;51.380;13.762;2023-04-15T07:47:41;4.05;;;3.30;;
27265;SDS011;14766;51.380;13.762;2023-04-15T07:50:09;3.92;;;3.50;;
27265;SDS011;14766;51.380;13.762;2023-04-15T07:52:37;5.00;;;3.70;;
27265;SDS011;14766;51.380;13.762;2023-04-15T07:55:05;4.50;;;3.63;;
27265;SDS011;14766;51.380;13.762;2023-04-15T07:57:36;4.13;;;3.42;;
27265;SDS011;14766;51.380;13.762;2023-04-15T08:00:04;2.92;;;2.63;;
27265;SDS011;14766;51.380;13.762;2023-04-15T08:02:39;4.28;;;3.00;;
27265;SDS011;14766;51.380;13.762;2023-04-15T08:05:09;2.60;;;2.38;;
27265;SDS011;14766;51.380;13.762;2023-04-15T08:07:36;4.72;;;3.00;;
27265;SDS011;14766;51.380;13.762;2023-04-15T08:10:04;3.25;;;2.75;;
27265;SDS011;14766;51.380;13.762;2023-04-15T08:12:32;4.03;;;2.67;;
27265;SDS011;14766;51.380;13.762;2023-04-15T08:15:00;4.57;;;2.90;;
27265;SDS011;14766;51.380;13.762;2023-04-15T08:17:27;4.28;;;3.00;;
27265;SDS011;14766;51.380;13.762;2023-04-15T08:19:54;4.82;;;3.25;;
27265;SDS011;14766;51.380;13.762;2023-04-15T08:22:22;3.92;;;3.15;;
27265;SDS011;14766;51.380;13.762;2023-04-15T08:24:50;4.22;;;3.00;;
27265;SDS011;14766;51.380;13.762;2023-04-15T08:27:17;4.43;;;2.88;;
27265;SDS011;14766;51.380;13.762;2023-04-15T08:29:45;11.38;;;6.03;;
27265;SDS011;14766;51.380;13.762;2023-04-15T08:32:13;12.30;;;6.97;;
27265;SDS011;14766;51.380;13.762;2023-04-15T08:34:40;5.00;;;3.58;;
27265;SDS011;14766;51.380;13.762;2023-04-15T08:37:07;4.07;;;2.97;;
27265;SDS011;14766;51.380;13.762;2023-04-15T08:39:36;10.80;;;4.22;;
27265;SDS011;14766;51.380;13.762;2023-04-15T08:42:03;29.13;;;8.25;;
27265;SDS011;14766;51.380;13.762;2023-04-15T08:44:37;6.35;;;3.53;;
27265;SDS011;14766;51.380;13.762;2023-04-15T08:47:06;3.88;;;3.20;;
27265;SDS011;14766;51.380;13.762;2023-04-15T08:49:38;4.72;;;3.53;;
27265;SDS011;14766;51.380;13.762;2023-04-15T08:52:08;3.05;;;2.75;;
27265;SDS011;14766;51.380;13.762;2023-04-15T08:54:37;3.00;;;2.63;;
27265;SDS011;14766;51.380;13.762;2023-04-15T08:57:04;3.70;;;2.70;;
27265;SDS011;14766;51.380;13.762;2023-04-15T08:59:32;2.80;;;2.50;;
27265;SDS011;14766;51.380;13.762;2023-04-15T09:01:59;4.78;;;3.60;;
27265;SDS011;14766;51.380;13.762;2023-04-15T09:04:29;6.13;;;4.63;;
27265;SDS011;14766;51.380;13.762;2023-04-15T09:06:57;5.75;;;5.15;;
27265;SDS011;14766;51.380;13.762;2023-04-15T09:09:24;7.82;;;6.60;;
27265;SDS011;14766;51.380;13.762;2023-04-15T09:11:51;5.63;;;4.72;;
27265;SDS011;14766;51.380;13.762;2023-04-15T09:14:18;3.58;;;3.00;;
27265;SDS011;14766;51.380;13.762;2023-04-15T09:17:03;3.88;;;3.30;;
27265;SDS011;14766;51.380;13.762;2023-04-15T09:19:32;3.25;;;2.63;;
27265;SDS011;14766;51.380;13.762;2023-04-15T09:22:01;2.63;;;1.80;;
27265;SDS011;14766;51.380;13.762;2023-04-15T09:24:36;4.38;;;2.10;;
27265;SDS011;14766;51.380;13.762;2023-04-15T09:27:04;4.28;;;1.85;;
27265;SDS011;14766;51.380;13.762;2023-04-15T09:29:32;1.80;;;1.70;;
27265;SDS011;14766;51.380;13.762;2023-04-15T09:32:13;2.28;;;1.70;;
27265;SDS011;14766;51.380;13.762;2023-04-15T09:34:43;2.95;;;1.80;;
27265;SDS011;14766;51.380;13.762;2023-04-15T09:37:11;1.63;;;1.50;;
27265;SDS011;14766;51.380;13.762;2023-04-15T09:39:57;2.92;;;1.63;;
27265;SDS011;14766;51.380;13.762;2023-04-15T09:42:24;2.00;;;1.50;;
27265;SDS011;14766;51.380;13.762;2023-04-15T09:44:52;1.63;;;1.35;;
27265;SDS011;14766;51.380;13.762;2023-04-15T09:47:26;6.53;;;3.50;;
27265;SDS011;14766;51.380;13.762;2023-04-15T09:49:57;4.40;;;2.67;;
27265;SDS011;14766;51.380;13.762;2023-04-15T09:52:26;5.82;;;2.80;;
27265;SDS011;14766;51.380;13.762;2023-04-15T09:54:55;5.10;;;2.85;;
27265;SDS011;14766;51.380;13.762;2023-04-15T09:57:32;3.33;;;2.67;;
27265;SDS011;14766;51.380;13.762;2023-04-15T10:00:04;1.90;;;1.60;;
27265;SDS011;14766;51.380;13.762;2023-04-15T10:02:36;1.67;;;1.58;;
27265;SDS011;14766;51.380;13.762;2023-04-15T10:05:09;1.85;;;1.75;;
27265;SDS011;14766;51.380;13.762;2023-04-15T10:07:39;2.10;;;1.90;;
27265;SDS011;14766;51.380;13.762;2023-04-15T10:10:08;1.55;;;1.45;;
27265;SDS011;14766;51.380;13.762;2023-04-15T10:12:36;2.53;;;2.03;;
27265;SDS011;14766;51.380;13.762;2023-04-15T10:15:06;3.90;;;3.20;;
27265;SDS011;14766;51.380;13.762;2023-04-15T10:17:44;3.63;;;2.80;;
27265;SDS011;14766;51.380;13.762;2023-04-15T10:20:14;4.90;;;3.40;;
27265;SDS011;14766;51.380;13.762;2023-04-15T10:22:44;7.00;;;5.00;;
27265;SDS011;14766;51.380;13.762;2023-04-15T10:25:14;4.72;;;3.58;;
27265;SDS011;14766;51.380;13.762;2023-04-15T10:27:43;3.72;;;3.00;;
27265;SDS011;14766;51.380;13.762;2023-04-15T10:30:11;3.28;;;2.42;;
27265;SDS011;14766;51.380;13.762;2023-04-15T10:32:39;2.95;;;2.65;;
27265;SDS011;14766;51.380;13.762;2023-04-15T10:35:07;3.22;;;2.30;;
27265;SDS011;14766;51.380;13.762;2023-04-15T10:37:36;2.83;;;2.47;;
27265;SDS011;14766;51.380;13.762;2023-04-15T10:40:23;2.88;;;2.30;;
27265;SDS011;14766;51.380;13.762;2023-04-15T10:42:57;2.92;;;2.70;;
27265;SDS011;14766;51.380;13.762;2023-04-15T10:45:27;3.00;;;2.58;;
27265;SDS011;14766;51.380;13.762;2023-04-15T10:48:00;3.08;;;2.33;;
27265;SDS011;14766;51.380;13.762;2023-04-15T10:50:30;3.70;;;3.08;;
27265;SDS011;14766;51.380;13.762;2023-04-15T10:52:58;2.72;;;2.53;;
27265;SDS011;14766;51.380;13.762;2023-04-15T10:55:30;4.35;;;3.13;;
27265;SDS011;14766;51.380;13.762;2023-04-15T10:57:59;4.50;;;3.72;;
27265;SDS011;14766;51.380;13.762;2023-04-15T11:00:28;5.40;;;4.45;;
27265;SDS011;14766;51.380;13.762;2023-04-15T11:03:06;5.68;;;4.82;;
27265;SDS011;14766;51.380;13.762;2023-04-15T11:05:50;7.45;;;5.30;;
27265;SDS011;14766;51.380;13.762;2023-04-15T11:08:18;8.55;;;6.35;;
27265;SDS011;14766;51.380;13.762;2023-04-15T11:13:14;5.20;;;3.80;;
27265;SDS011;14766;51.380;13.762;2023-04-15T11:18:27;5.55;;;4.20;;
27265;SDS011;14766;51.380;13.762;2023-04-15T11:21:03;4.32;;;3.75;;
27265;SDS011;14766;51.380;13.762;2023-04-15T11:23:38;4.05;;;3.65;;
27265;SDS011;14766;51.380;13.762;2023-04-15T11:26:09;4.00;;;3.30;;
27265;SDS011;14766;51.380;13.762;2023-04-15T11:28:41;4.40;;;2.90;;
27265;SDS011;14766;51.380;13.762;2023-04-15T11:31:13;3.75;;;2.55;;
27265;SDS011;14766;51.380;13.762;2023-04-15T11:33:54;4.68;;;3.05;;
27265;SDS011;14766;51.380;13.762;2023-04-15T11:36:25;3.92;;;3.00;;
27265;SDS011;14766;51.380;13.762;2023-04-15T11:38:53;3.25;;;2.78;;
27265;SDS011;14766;51.380;13.762;2023-04-15T11:41:21;2.97;;;2.67;;
27265;SDS011;14766;51.380;13.762;2023-04-15T11:43:49;3.05;;;2.60;;
27265;SDS011;14766;51.380;13.762;2023-04-15T11:46:16;3.13;;;2.50;;
27265;SDS011;14766;51.380;13.762;2023-04-15T11:48:45;2.75;;;2.55;;
27265;SDS011;14766;51.380;13.762;2023-04-15T11:51:14;3.40;;;2.90;;
27265;SDS011;14766;51.380;13.762;2023-04-15T11:53:42;3.90;;;3.25;;
27265;SDS011;14766;51.380;13.762;2023-04-15T11:56:10;4.22;;;2.70;;
27265;SDS011;14766;51.380;13.762;2023-04-15T11:58:47;3.97;;;2.78;;
27265;SDS011;14766;51.380;13.762;2023-04-15T12:01:17;3.70;;;2.45;;
27265;SDS011;14766;51.380;13.762;2023-04-15T12:03:45;5.50;;;2.65;;
27265;SDS011;14766;51.380;13.762;2023-04-15T12:06:30;2.42;;;2.22;;
27265;SDS011;14766;51.380;13.762;2023-04-15T12:11:43;3.28;;;2.58;;
27265;SDS011;14766;51.380;13.762;2023-04-15T12:16:40;2.20;;;2.00;;
27265;SDS011;14766;51.380;13.762;2023-04-15T12:19:17;2.88;;;2.13;;
27265;SDS011;14766;51.380;13.762;2023-04-15T12:22:14;2.20;;;1.90;;
27265;SDS011;14766;51.380;13.762;2023-04-15T12:24:43;2.03;;;1.75;;
27265;SDS011;14766;51.380;13.762;2023-04-15T12:27:15;3.63;;;2.53;;
27265;SDS011;14766;51.380;13.762;2023-04-15T12:29:43;3.72;;;2.60;;
27265;SDS011;14766;51.380;13.762;2023-04-15T12:32:11;2.97;;;2.40;;
27265;SDS011;14766;51.380;13.762;2023-04-15T12:34:52;3.20;;;2.10;;
27265;SDS011;14766;51.380;13.762;2023-04-15T12:37:23;2.97;;;2.50;;
27265;SDS011;14766;51.380;13.762;2023-04-15T12:39:51;2.58;;;2.20;;
27265;SDS011;14766;51.380;13.762;2023-04-15T12:42:19;2.10;;;1.83;;
27265;SDS011;14766;51.380;13.762;2023-04-15T12:44:48;1.90;;;1.80;;
27265;SDS011;14766;51.380;13.762;2023-04-15T12:47:14;2.08;;;1.77;;
27265;SDS011;14766;51.380;13.762;2023-04-15T12:49:42;13.90;;;3.95;;
27265;SDS011;14766;51.380;13.762;2023-04-15T12:52:09;7.55;;;2.42;;
27265;SDS011;14766;51.380;13.762;2023-04-15T12:54:37;3.50;;;1.95;;
27265;SDS011;14766;51.380;13.762;2023-04-15T12:57:05;2.60;;;2.05;;
27265;SDS011;14766;51.380;13.762;2023-04-15T12:59:33;2.28;;;2.00;;
27265;SDS011;14766;51.380;13.762;2023-04-15T13:02:03;18.98;;;3.78;;
27265;SDS011;14766;51.380;13.762;2023-04-15T13:04:32;3.47;;;2.08;;
27265;SDS011;14766;51.380;13.762;2023-04-15T13:06:59;2.33;;;1.90;;
27265;SDS011;14766;51.380;13.762;2023-04-15T13:09:27;3.65;;;2.22;;
27265;SDS011;14766;51.380;13.762;2023-04-15T13:11:54;20.77;;;5.18;;
27265;SDS011;14766;51.380;13.762;2023-04-15T13:14:26;8.88;;;2.40;;
27265;SDS011;14766;51.380;13.762;2023-04-15T13:16:53;2.60;;;2.20;;
27265;SDS011;14766;51.380;13.762;2023-04-15T13:19:21;8.05;;;2.50;;
27265;SDS011;14766;51.380;13.762;2023-04-15T13:21:48;10.00;;;2.55;;
27265;SDS011;14766;51.380;13.762;2023-04-15T13:24:15;3.28;;;2.20;;
27265;SDS011;14766;51.380;13.762;2023-04-15T13:26:42;3.03;;;1.88;;
27265;SDS011;14766;51.380;13.762;2023-04-15T13:29:09;2.13;;;1.92;;
27265;SDS011;14766;51.380;13.762;2023-04-15T13:31:37;2.95;;;1.63;;
27265;SDS011;14766;51.380;13.762;2023-04-15T13:34:04;2.45;;;1.65;;
27265;SDS011;14766;51.380;13.762;2023-04-15T13:36:32;1.63;;;1.45;;
27265;SDS011;14766;51.380;13.762;2023-04-15T13:38:59;2.28;;;1.60;;
27265;SDS011;14766;51.380;13.762;2023-04-15T13:41:26;2.10;;;1.63;;
27265;SDS011;14766;51.380;13.762;2023-04-15T13:43:53;2.35;;;1.52;;
27265;SDS011;14766;51.380;13.762;2023-04-15T13:46:21;2.35;;;1.50;;
27265;SDS011;14766;51.380;13.762;2023-04-15T13:48:48;2.78;;;1.58;;
27265;SDS011;14766;51.380;13.762;2023-04-15T13:51:15;1.73;;;1.42;;
27265;SDS011;14766;51.380;13.762;2023-04-15T13:53:42;1.83;;;1.60;;
27265;SDS011;14766;51.380;13.762;2023-04-15T13:56:09;2.72;;;1.42;;
27265;SDS011;14766;51.380;13.762;2023-04-15T13:58:39;2.40;;;1.85;;
27265;SDS011;14766;51.380;13.762;2023-04-15T14:01:06;3.22;;;1.77;;
27265;SDS011;14766;51.380;13.762;2023-04-15T14:03:34;2.38;;;1.67;;
27265;SDS011;14766;51.380;13.762;2023-04-15T14:06:03;1.77;;;1.65;;
27265;SDS011;14766;51.380;13.762;2023-04-15T14:08:30;2.03;;;1.77;;
27265;SDS011;14766;51.380;13.762;2023-04-15T14:10:58;2.38;;;1.88;;
27265;SDS011;14766;51.380;13.762;2023-04-15T14:13:29;2.15;;;1.65;;
27265;SDS011;14766;51.380;13.762;2023-04-15T14:15:56;2.17;;;1.75;;
27265;SDS011;14766;51.380;13.762;2023-04-15T14:18:23;3.08;;;2.00;;
27265;SDS011;14766;51.380;13.762;2023-04-15T14:20:51;2.75;;;1.75;;
27265;SDS011;14766;51.380;13.762;2023-04-15T14:23:18;1.70;;;1.60;;
27265;SDS011;14766;51.380;13.762;2023-04-15T14:25:49;2.67;;;1.60;;
27265;SDS011;14766;51.380;13.762;2023-04-15T14:28:17;3.10;;;1.40;;
27265;SDS011;14766;51.380;13.762;2023-04-15T14:30:45;2.20;;;1.90;;
27265;SDS011;14766;51.380;13.762;2023-04-15T14:33:14;2.08;;;1.58;;
27265;SDS011;14766;51.380;13.762;2023-04-15T14:35:41;2.60;;;1.80;;
27265;SDS011;14766;51.380;13.762;2023-04-15T14:38:08;2.90;;;1.60;;
27265;SDS011;14766;51.380;13.762;2023-04-15T14:40:37;2.65;;;1.60;;
27265;SDS011;14766;51.380;13.762;2023-04-15T14:43:06;2.08;;;1.60;;
27265;SDS011;14766;51.380;13.762;2023-04-15T14:45:33;1.90;;;1.60;;
27265;SDS011;14766;51.380;13.762;2023-04-15T14:48:08;2.25;;;1.45;;
27265;SDS011;14766;51.380;13.762;2023-04-15T14:50:35;2.20;;;1.67;;